createdAt,value
2022-12-18T00:02:28.211Z,38.47
2022-12-18T00:05:29.854Z,40.05
2022-12-18T00:08:31.605Z,42.30
2022-12-18T00:11:33.297Z,37.40
2022-12-18T00:14:34.963Z,37.03
2022-12-18T00:17:36.565Z,40.33
2022-12-18T00:20:40.176Z,36.95
2022-12-18T00:23:43.838Z,39.25
2022-12-18T00:26:45.609Z,41.60
2022-12-18T00:29:48.719Z,39.23
2022-12-18T00:32:50.306Z,44.40
2022-12-18T00:35:51.896Z,42.67
2022-12-18T00:38:55.193Z,40.78
2022-12-18T00:42:15.567Z,43.53
2022-12-18T00:45:17.225Z,43.23
2022-12-18T00:48:19.000Z,38.95
2022-12-18T00:51:20.635Z,42.90
2022-12-18T00:54:22.235Z,48.25
2022-12-18T00:57:25.564Z,47.60
2022-12-18T01:00:27.229Z,46.13
2022-12-18T01:03:28.920Z,45.97
2022-12-18T01:06:30.762Z,47.40
2022-12-18T01:09:32.503Z,48.50
2022-12-18T01:12:34.324Z,47.13
2022-12-18T01:15:35.946Z,46.00
2022-12-18T01:18:37.572Z,46.65
2022-12-18T01:21:39.182Z,43.33
2022-12-18T01:24:40.842Z,41.58
2022-12-18T01:27:42.505Z,42.10
2022-12-18T01:30:44.325Z,47.90
2022-12-18T01:33:46.473Z,51.75
2022-12-18T01:36:48.133Z,47.65
2022-12-18T01:39:50.901Z,44.35
2022-12-18T01:42:53.155Z,50.10
2022-12-18T01:45:55.262Z,42.03
2022-12-18T01:49:02.281Z,47.85
2022-12-18T01:52:04.794Z,44.67
2022-12-18T01:55:07.803Z,45.15
2022-12-18T01:58:09.611Z,46.87
2022-12-18T02:01:11.391Z,48.43
2022-12-18T02:04:31.238Z,46.47
2022-12-18T02:07:45.189Z,42.45
2022-12-18T02:11:13.248Z,49.28
2022-12-18T02:14:36.801Z,48.80
2022-12-18T02:17:44.420Z,46.23
2022-12-18T02:21:04.006Z,45.22
2022-12-18T02:24:34.683Z,45.08
2022-12-18T02:27:40.080Z,44.25
2022-12-18T02:30:43.924Z,44.37
2022-12-18T02:33:47.071Z,46.13
2022-12-18T02:36:50.223Z,49.55
2022-12-18T02:39:54.051Z,45.50
2022-12-18T02:42:55.923Z,53.30
2022-12-18T02:46:00.579Z,50.87
2022-12-18T02:49:19.883Z,53.60
2022-12-18T02:52:39.506Z,49.00
2022-12-18T02:55:55.257Z,48.95
2022-12-18T02:59:01.112Z,51.97
2022-12-18T03:02:20.022Z,48.53
2022-12-18T03:05:44.538Z,50.27
2022-12-18T03:08:50.734Z,49.65
2022-12-18T03:12:23.842Z,47.15
2022-12-18T03:15:31.590Z,43.42
2022-12-18T03:18:47.080Z,47.93
2022-12-18T03:21:52.700Z,50.10
2022-12-18T03:24:57.483Z,47.55
2022-12-18T03:28:02.081Z,55.53
2022-12-18T03:31:07.606Z,50.28
2022-12-18T03:34:20.753Z,49.00
2022-12-18T03:37:22.510Z,50.67
2022-12-18T03:40:32.232Z,49.28
2022-12-18T03:43:54.077Z,51.42
2022-12-18T03:47:16.525Z,52.78
2022-12-18T03:50:28.159Z,48.33
2022-12-18T03:53:50.193Z,59.13
2022-12-18T03:56:59.133Z,53.25
2022-12-18T04:00:09.218Z,56.03
2022-12-18T04:03:12.086Z,45.63
2022-12-18T04:06:15.924Z,48.23
2022-12-18T04:09:17.872Z,53.17
2022-12-18T04:12:19.544Z,50.28
2022-12-18T04:15:21.254Z,55.72
2022-12-18T04:18:22.856Z,54.38
2022-12-18T04:21:24.513Z,65.17
2022-12-18T04:24:26.465Z,55.47
2022-12-18T04:27:28.099Z,55.50
2022-12-18T04:30:30.140Z,55.55
2022-12-18T04:33:32.001Z,55.30
2022-12-18T04:36:33.833Z,55.57
2022-12-18T04:39:36.684Z,57.03
2022-12-18T04:42:39.736Z,53.25
2022-12-18T04:45:41.502Z,55.33
2022-12-18T04:48:43.150Z,55.13
2022-12-18T04:51:44.837Z,51.47
2022-12-18T04:54:46.549Z,55.83
2022-12-18T04:57:48.157Z,51.22
2022-12-18T05:00:49.775Z,52.80
2022-12-18T05:03:52.671Z,52.05
2022-12-18T05:06:54.446Z,50.83
2022-12-18T05:09:56.109Z,53.63
2022-12-18T05:13:01.324Z,50.95
2022-12-18T05:16:03.691Z,55.50
2022-12-18T05:19:05.546Z,56.25
2022-12-18T05:22:07.199Z,60.27
2022-12-18T05:25:09.466Z,58.87
2022-12-18T05:28:11.301Z,60.38
2022-12-18T05:31:13.402Z,54.50
2022-12-18T05:34:15.170Z,54.47
2022-12-18T05:37:17.899Z,53.80
2022-12-18T05:40:19.562Z,51.30
2022-12-18T05:43:25.237Z,52.80
2022-12-18T05:46:27.637Z,54.97
2022-12-18T05:49:29.284Z,47.53
2022-12-18T05:52:31.562Z,49.63
2022-12-18T05:55:37.294Z,50.03
2022-12-18T05:58:39.846Z,49.83
2022-12-18T06:01:41.825Z,53.40
2022-12-18T06:04:43.682Z,43.70
2022-12-18T06:07:45.426Z,53.22
2022-12-18T06:10:53.325Z,49.38
2022-12-18T06:13:59.181Z,51.53
2022-12-18T06:17:01.264Z,58.05
2022-12-18T06:20:03.920Z,57.03
2022-12-18T06:23:05.498Z,53.55
2022-12-18T06:26:09.488Z,54.38
2022-12-18T06:29:11.142Z,54.63
2022-12-18T06:32:12.787Z,56.63
2022-12-18T06:35:14.422Z,57.47
2022-12-18T06:38:17.575Z,57.75
2022-12-18T06:41:21.688Z,66.80
2022-12-18T06:44:23.495Z,74.05
2022-12-18T06:47:25.202Z,60.60
2022-12-18T06:50:27.014Z,55.88
2022-12-18T06:53:29.349Z,71.57
2022-12-18T06:56:31.643Z,65.68
2022-12-18T06:59:33.343Z,84.10
2022-12-18T07:02:35.467Z,141.77
2022-12-18T07:05:41.853Z,104.40
2022-12-18T07:08:43.659Z,67.70
2022-12-18T07:11:45.377Z,58.88
2022-12-18T07:14:46.970Z,60.00
2022-12-18T07:17:48.605Z,63.88
2022-12-18T07:20:50.241Z,64.43
2022-12-18T07:23:51.995Z,71.33
2022-12-18T07:26:53.717Z,64.20
2022-12-18T07:29:55.990Z,65.80
2022-12-18T07:32:57.689Z,55.42
2022-12-18T07:36:04.593Z,57.88
2022-12-18T07:39:06.310Z,88.93
2022-12-18T07:42:26.463Z,76.00
2022-12-18T07:45:29.193Z,66.47
2022-12-18T07:48:31.590Z,64.40
2022-12-18T07:51:33.623Z,65.18
2022-12-18T07:54:35.309Z,58.67
2022-12-18T07:57:56.423Z,48.92
2022-12-18T08:01:05.870Z,50.28
2022-12-18T08:04:08.021Z,47.30
2022-12-18T08:07:09.681Z,47.10
2022-12-18T08:10:11.303Z,52.63
2022-12-18T08:13:12.924Z,53.50
2022-12-18T08:16:14.569Z,52.58
2022-12-18T08:19:16.255Z,49.05
2022-12-18T08:22:18.033Z,44.97
2022-12-18T08:25:19.669Z,43.70
2022-12-18T08:28:21.478Z,44.75
2022-12-18T08:31:23.791Z,49.78
2022-12-18T08:34:26.247Z,54.90
2022-12-18T08:37:27.887Z,48.70
2022-12-18T08:40:29.625Z,51.27
2022-12-18T08:43:49.554Z,44.38
2022-12-18T08:46:51.132Z,50.85
2022-12-18T08:49:52.773Z,48.03
2022-12-18T08:52:54.475Z,44.15
2022-12-18T08:55:57.769Z,47.43
2022-12-18T08:58:59.571Z,46.58
2022-12-18T09:02:02.119Z,46.42
2022-12-18T09:05:04.157Z,51.40
2022-12-18T09:08:05.837Z,51.88
2022-12-18T09:11:14.445Z,48.93
2022-12-18T09:14:16.138Z,46.17
2022-12-18T09:17:17.878Z,45.65
2022-12-18T09:20:20.149Z,44.50
2022-12-18T09:23:22.385Z,49.88
2022-12-18T09:26:25.833Z,48.33
2022-12-18T09:29:27.493Z,47.92
2022-12-18T09:32:29.855Z,45.00
2022-12-18T09:35:31.706Z,51.05
2022-12-18T09:38:34.749Z,50.80
2022-12-18T09:41:54.274Z,44.27
2022-12-18T09:44:56.020Z,51.10
2022-12-18T09:47:58.612Z,43.97
2022-12-18T09:51:06.832Z,46.50
2022-12-18T09:54:15.218Z,46.75
2022-12-18T09:57:21.507Z,46.57
2022-12-18T10:00:25.201Z,48.30
2022-12-18T10:03:27.566Z,49.65
2022-12-18T10:06:57.258Z,45.13
2022-12-18T10:10:13.789Z,44.75
2022-12-18T10:13:32.063Z,46.17
2022-12-18T10:17:12.324Z,46.00
2022-12-18T10:20:25.058Z,49.47
2022-12-18T10:23:34.636Z,46.72
2022-12-18T10:26:36.431Z,45.90
2022-12-18T10:29:38.872Z,44.10
2022-12-18T10:32:40.711Z,48.70
2022-12-18T10:35:43.367Z,43.97
2022-12-18T10:38:45.162Z,48.42
2022-12-18T10:41:47.246Z,43.85
2022-12-18T10:45:02.637Z,40.70
2022-12-18T10:48:04.787Z,45.65
2022-12-18T10:51:12.095Z,50.78
2022-12-18T10:54:24.765Z,44.45
2022-12-18T10:57:35.026Z,39.70
2022-12-18T11:00:37.033Z,37.77
2022-12-18T11:03:41.994Z,43.15
2022-12-18T11:07:06.842Z,41.30
2022-12-18T11:10:18.673Z,34.90
2022-12-18T11:13:23.163Z,34.42
2022-12-18T11:16:24.988Z,36.83
2022-12-18T11:19:36.153Z,32.05
2022-12-18T11:22:39.288Z,40.85
2022-12-18T11:25:52.750Z,38.40
2022-12-18T11:29:09.780Z,42.70
2022-12-18T11:32:28.226Z,41.83
2022-12-18T11:35:46.722Z,45.15
2022-12-18T11:38:50.299Z,36.97
2022-12-18T11:42:12.698Z,38.28
2022-12-18T11:45:14.480Z,37.03
2022-12-18T11:48:27.841Z,34.17
2022-12-18T11:51:38.314Z,36.70
2022-12-18T11:54:39.950Z,32.63
2022-12-18T11:58:15.651Z,38.03
2022-12-18T12:01:54.961Z,33.22
2022-12-18T12:05:04.994Z,33.53
2022-12-18T12:08:12.530Z,34.95
2022-12-18T12:11:49.735Z,33.67
2022-12-18T12:15:19.166Z,32.15
2022-12-18T12:18:26.775Z,32.90
2022-12-18T12:21:42.104Z,29.57
2022-12-18T12:25:11.254Z,31.73
2022-12-18T12:28:31.305Z,28.95
2022-12-18T12:32:03.825Z,32.63
2022-12-18T12:35:44.137Z,33.35
2022-12-18T12:38:56.095Z,31.83
2022-12-18T12:42:16.807Z,38.97
2022-12-18T12:45:29.378Z,32.85
2022-12-18T12:48:52.345Z,34.85
2022-12-18T12:52:01.272Z,34.40
2022-12-18T12:55:10.313Z,27.80
2022-12-18T12:58:26.009Z,30.05
2022-12-18T13:02:00.702Z,35.15
2022-12-18T13:05:19.918Z,35.28
2022-12-18T13:08:30.071Z,32.50
2022-12-18T13:12:00.046Z,31.57
2022-12-18T13:15:23.448Z,28.25
2022-12-18T13:18:26.344Z,31.98
2022-12-18T13:21:31.947Z,30.55
2022-12-18T13:24:33.929Z,28.55
2022-12-18T13:27:41.343Z,30.97
2022-12-18T13:30:44.823Z,31.60
2022-12-18T13:34:23.835Z,30.83
2022-12-18T13:37:39.510Z,33.08
2022-12-18T13:40:41.613Z,36.42
2022-12-18T13:44:13.706Z,35.90
2022-12-18T13:47:38.407Z,32.33
2022-12-18T13:50:40.554Z,35.28
2022-12-18T13:53:50.742Z,29.75
2022-12-18T13:56:52.981Z,29.42
2022-12-18T13:59:54.713Z,28.90
2022-12-18T14:02:58.104Z,31.88
2022-12-18T14:06:13.667Z,32.17
2022-12-18T14:09:26.287Z,30.55
2022-12-18T14:12:51.630Z,37.47
2022-12-18T14:15:53.590Z,35.87
2022-12-18T14:19:08.372Z,46.33
2022-12-18T14:22:28.729Z,47.55
2022-12-18T14:25:31.787Z,47.47
2022-12-18T14:28:34.261Z,41.92
2022-12-18T14:31:35.932Z,42.33
2022-12-18T14:34:40.723Z,41.95
2022-12-18T14:37:42.382Z,44.53
2022-12-18T14:40:44.859Z,39.30
2022-12-18T14:43:49.246Z,49.13
2022-12-18T14:46:51.866Z,83.23
2022-12-18T14:49:53.472Z,101.13
2022-12-18T14:52:55.066Z,67.57
2022-12-18T14:55:56.916Z,76.90
2022-12-18T14:59:23.715Z,71.05
2022-12-18T15:02:28.801Z,70.23
2022-12-18T15:05:32.593Z,69.97
2022-12-18T15:08:37.904Z,77.22
2022-12-18T15:11:42.989Z,72.25
2022-12-18T15:14:45.052Z,92.60
2022-12-18T15:17:46.988Z,98.50
2022-12-18T15:20:54.243Z,93.13
2022-12-18T15:23:56.513Z,85.43
2022-12-18T15:26:59.099Z,81.13
2022-12-18T15:30:09.779Z,74.03
2022-12-18T15:33:25.767Z,64.73
2022-12-18T15:36:30.930Z,63.28
2022-12-18T15:39:32.785Z,66.15
2022-12-18T15:42:53.622Z,56.13
2022-12-18T15:45:55.502Z,52.65
2022-12-18T15:49:02.189Z,48.67
2022-12-18T15:52:05.783Z,55.05
2022-12-18T15:55:36.586Z,48.45
2022-12-18T15:58:39.089Z,58.67
2022-12-18T16:01:43.069Z,50.65
2022-12-18T16:04:46.816Z,58.60
2022-12-18T16:07:48.737Z,74.28
2022-12-18T16:10:50.314Z,103.78
2022-12-18T16:13:53.255Z,71.57
2022-12-18T16:16:58.591Z,59.55
2022-12-18T16:20:00.678Z,65.83
2022-12-18T16:23:02.572Z,98.28
2022-12-18T16:26:05.634Z,204.52
2022-12-18T16:29:07.537Z,239.68
2022-12-18T16:32:16.643Z,110.10
2022-12-18T16:35:18.645Z,94.97
2022-12-18T16:38:20.914Z,76.15
2022-12-18T16:41:34.728Z,183.10
2022-12-18T16:44:36.777Z,166.07
2022-12-18T16:47:39.865Z,96.45
2022-12-18T16:50:42.113Z,53.10
2022-12-18T16:53:44.509Z,51.97
2022-12-18T16:56:49.839Z,47.40
2022-12-18T16:59:51.936Z,66.70
2022-12-18T17:02:54.753Z,69.40
2022-12-18T17:06:03.185Z,110.37
2022-12-18T17:09:09.015Z,154.43
2022-12-18T17:12:10.942Z,144.13
2022-12-18T17:15:12.809Z,108.50
2022-12-18T17:18:15.096Z,147.95
2022-12-18T17:21:17.677Z,202.83
2022-12-18T17:24:20.657Z,245.40
2022-12-18T17:27:22.572Z,247.15
2022-12-18T17:30:24.430Z,229.98
2022-12-18T17:33:26.413Z,232.40
2022-12-18T17:36:29.022Z,179.60
2022-12-18T17:39:31.386Z,191.43
2022-12-18T17:42:34.046Z,158.30
2022-12-18T17:45:39.874Z,121.45
2022-12-18T17:48:41.866Z,86.10
2022-12-18T17:51:43.838Z,99.57
2022-12-18T17:54:48.056Z,108.47
2022-12-18T17:57:50.766Z,119.43
2022-12-18T18:00:52.792Z,118.47
2022-12-18T18:03:57.844Z,74.07
2022-12-18T18:07:00.030Z,63.40
2022-12-18T18:10:02.014Z,59.03
2022-12-18T18:13:23.373Z,77.13
2022-12-18T18:16:25.292Z,51.40
2022-12-18T18:19:27.213Z,62.38
2022-12-18T18:22:29.132Z,83.37
2022-12-18T18:25:31.222Z,91.50
2022-12-18T18:28:33.247Z,93.22
2022-12-18T18:31:35.316Z,84.10
2022-12-18T18:34:43.414Z,102.10
2022-12-18T18:37:48.203Z,104.17
2022-12-18T18:41:04.279Z,134.95
2022-12-18T18:44:06.859Z,142.25
2022-12-18T18:47:09.591Z,107.93
2022-12-18T18:50:12.934Z,101.60
2022-12-18T18:53:14.550Z,95.57
2022-12-18T18:57:03.925Z,122.75
2022-12-18T18:59:46.488Z,99.43
2022-12-18T19:02:48.386Z,91.00
2022-12-18T19:06:00.003Z,91.32
2022-12-18T19:09:04.358Z,95.77
2022-12-18T19:12:25.312Z,93.47
2022-12-18T19:15:27.999Z,91.30
2022-12-18T19:18:30.063Z,109.70
2022-12-18T19:21:34.109Z,98.95
2022-12-18T19:24:37.038Z,104.47
2022-12-18T19:27:40.076Z,93.20
2022-12-18T19:30:41.874Z,97.68
2022-12-18T19:33:46.172Z,99.18
2022-12-18T19:36:49.057Z,116.45
2022-12-18T19:39:53.161Z,93.50
2022-12-18T19:42:55.058Z,89.68
2022-12-18T19:45:57.047Z,90.25
2022-12-18T19:49:00.263Z,88.80
2022-12-18T19:52:02.783Z,92.75
2022-12-18T19:55:05.140Z,94.97
2022-12-18T19:58:07.021Z,101.30
2022-12-18T20:01:09.020Z,110.80
2022-12-18T20:04:12.581Z,111.13
2022-12-18T20:07:14.607Z,118.25
2022-12-18T20:10:20.001Z,141.80
2022-12-18T20:13:22.940Z,73.93
2022-12-18T20:16:25.190Z,96.32
2022-12-18T20:19:27.393Z,71.82
2022-12-18T20:22:29.310Z,64.30
2022-12-18T20:25:31.232Z,58.67
2022-12-18T20:28:33.252Z,60.17
2022-12-18T20:31:35.235Z,58.33
2022-12-18T20:34:37.117Z,68.68
2022-12-18T20:37:39.533Z,66.50
2022-12-18T20:40:44.651Z,77.90
2022-12-18T20:43:46.773Z,76.43
2022-12-18T20:46:50.145Z,66.07
2022-12-18T20:49:51.887Z,55.67
2022-12-18T20:52:53.625Z,50.88
2022-12-18T20:55:55.305Z,54.63
2022-12-18T20:58:58.195Z,60.83
2022-12-18T21:02:00.154Z,56.45
2022-12-18T21:05:02.001Z,55.13
2022-12-18T21:08:03.756Z,76.68
2022-12-18T21:11:51.302Z,56.47
2022-12-18T21:14:52.952Z,60.17
2022-12-18T21:17:54.583Z,66.07
2022-12-18T21:20:56.458Z,66.07
2022-12-18T21:23:58.064Z,82.32
2022-12-18T21:26:59.729Z,76.17
2022-12-18T21:30:01.743Z,76.90
2022-12-18T21:33:03.661Z,88.95
2022-12-18T21:36:06.602Z,89.13
2022-12-18T21:39:08.561Z,86.53
2022-12-18T21:42:31.706Z,102.43
2022-12-18T21:45:33.346Z,84.25
2022-12-18T21:48:38.329Z,85.55
2022-12-18T21:51:40.289Z,82.43
2022-12-18T21:54:41.979Z,80.78
2022-12-18T21:57:43.617Z,86.00
2022-12-18T22:00:48.671Z,76.40
2022-12-18T22:03:50.536Z,81.53
2022-12-18T22:06:52.836Z,80.30
2022-12-18T22:09:54.578Z,72.82
2022-12-18T22:12:56.227Z,80.30
2022-12-18T22:15:57.932Z,78.60
2022-12-18T22:18:59.992Z,79.43
2022-12-18T22:22:01.929Z,78.70
2022-12-18T22:25:03.962Z,74.93
2022-12-18T22:28:24.303Z,75.90
2022-12-18T22:31:25.980Z,76.95
2022-12-18T22:34:27.926Z,80.13
2022-12-18T22:37:29.560Z,75.25
2022-12-18T22:40:31.250Z,75.28
2022-12-18T22:43:33.409Z,79.67
2022-12-18T22:46:38.409Z,77.40
2022-12-18T22:49:40.045Z,75.78
2022-12-18T22:52:41.734Z,78.30
2022-12-18T22:55:43.410Z,75.88
2022-12-18T22:58:47.940Z,78.77
2022-12-18T23:01:51.555Z,70.65
2022-12-18T23:05:00.095Z,75.03
2022-12-18T23:08:01.780Z,74.97
2022-12-18T23:11:04.538Z,77.20
2022-12-18T23:14:06.238Z,83.03
2022-12-18T23:17:07.910Z,80.10
2022-12-18T23:20:10.154Z,77.38
2022-12-18T23:23:11.758Z,77.32
2022-12-18T23:26:21.113Z,80.60
2022-12-18T23:29:22.756Z,82.20
2022-12-18T23:32:24.350Z,82.10
2022-12-18T23:35:26.127Z,76.82
2022-12-18T23:38:28.705Z,71.82
2022-12-18T23:41:31.730Z,71.65
2022-12-18T23:44:33.974Z,67.40
2022-12-18T23:47:36.156Z,69.60
2022-12-18T23:50:38.117Z,79.80
2022-12-18T23:53:40.310Z,86.82
2022-12-18T23:56:42.379Z,94.07
2022-12-18T23:59:44.113Z,94.78
